^^

Nearby METAR Reports

 

LIRH - Frosinone (it-Af, Italy
Distance from station: SO 5km
Dati ricevuti: 05/08/2022 19:55
Non Attivo
Parz. nuvoloso
Parz. nuvoloso
 Vento da O
Vento: O 11 km/h
Temperatura: 32°C
Indice di Calore: 33°C
P.to Rugiada: 17°C
Umidità: 41%
Barometro: 1012 hPa
Clouds: Parz. nuvoloso
Visibility: 10 km
Cloud details: Parz. nuvoloso 1219 m
2022/08/05 17:55 LIRH 051755Z 27006KT 9999 SCT040 32/17 Q1012
LIRL - Latina (it-Afb), Italy
Distance from station: OSO 40km
Dati ricevuti: 05/08/2022 19:55
Non Attivo
Few Clouds
Few Clouds
 Vento da O
Vento: O 15 km/h
Temperatura: 31°C
Indice di Calore: 33°C
P.to Rugiada: 20°C
Umidità: 52%
Barometro: 1012 hPa
Clouds: Few Clouds
Visibility: 10 km
Cloud details: Few Clouds 762 m
2022/08/05 17:55 LIRL 051755Z 27008KT 9999 FEW025 31/20 Q1012
 
LIRG - Guidonia (it-Afb, Italy
Distance from station: NO 63km
Dati ricevuti: 05/08/2022 19:55
Non Attivo
Sereno
Sereno
 Vento da SSO
Vento: SSO 11 km/h
Temperatura: 32°C
Indice di Calore: 33°C
P.to Rugiada: 18°C
Umidità: 43%
Barometro: 1013 hPa
Summary: Sereno
Visibility: greater than 10 km
2022/08/05 17:55 LIRG 051755Z 20006KT CAVOK 32/18 Q1013
LIRA - Ciampino(It-Afb/, Italy
Distance from station: ONO 64km
Dati ricevuti: 07/08/2022 19:50
Few Clouds
Few Clouds
 Vento da E
Vento: E 22 km/h
Temperatura: 31°C
Indice di Calore: 31°C
P.to Rugiada: 16°C
Umidità: 40%
Barometro: 1011 hPa
Clouds: Few Clouds
Visibility: 10 km
Cloud details: Few Clouds 1219 m
2022/08/07 17:50 LIRA 071750Z 09012KT 9999 FEW040 31/16 Q1011
 
LIRU - Roma/Urbe (it-Af, Italy
Distance from station: ONO 76km
Dati ricevuti: 07/08/2022 19:50
Sereno
Sereno
 Vento da N
Vento: N 13 km/h
Temperatura: 28°C
Indice di Calore: 28°C
P.to Rugiada: 16°C
Umidità: 48%
Barometro: 1011 hPa
Summary: Sereno
Visibility: greater than 10 km
2022/08/07 17:50 LIRU 071750Z 36007KT 340V040 CAVOK 28/16 Q1011
LIRE - Pratica Di Mare(, Italy
Distance from station: O 77km
Dati ricevuti: 07/08/2022 19:55
Sereno
Sereno
 Vento da N
Vento: N 6 km/h
Temperatura: 30°C
Indice di Calore: 31°C
P.to Rugiada: 17°C
Umidità: 46%
Barometro: 1010 hPa
Summary: Sereno
Visibility: greater than 10 km
2022/08/07 17:55 LIRE 071755Z 35003KT CAVOK 30/17 Q1010
 
LIQN - Rieti, Italy
Distance from station: NNO 92km
Dati ricevuti: 07/08/2022 19:50
Nearby showers, Parz. nuvoloso
Nearby showers, Parz. nuvoloso
 Vento da ESE
Vento: ESE 28 km/h
Temperatura: 21°C
P.to Rugiada: 18°C
Umidità: 83%
Barometro: 1014 hPa
Summary: Nearby Showers
Clouds: Parz. nuvoloso
Visibility: 9 km
Cloud details: Parz. nuvoloso 2438 m
2022/08/07 17:50 LIQN 071750Z 11015KT 090V150 9000 VCSH SCT080CB 21/18 Q1014 RETSRA
LIRK - Terminillo, Italy
Distance from station: NNO 93km
Dati ricevuti: 07/08/2022 20:06

 Vento da E
Vento: E 26 km/h
Temperatura: 19°C
P.to Rugiada: 8°C
Umidità: 49%
Barometro: 1027 hPa
2022/08/07 18:06 LIRK 071806Z AUTO 08014KT //// 19/08 Q1027
 
LIRF - Roma/Fiumicino, Italy
Distance from station: O 94km
Dati ricevuti: 07/08/2022 19:50
Sereno
Sereno
 Vento da NE
Vento: NE 20 km/h
Temperatura: 30°C
Indice di Calore: 29°C
P.to Rugiada: 15°C
Umidità: 40%
Barometro: 1010 hPa
Summary: Sereno
Visibility: greater than 10 km
2022/08/07 17:50 LIRF 071750Z 05011KT CAVOK 30/15 Q1010 NOSIG
LIRM - Grazzanise (it-A, Italy
Distance from station: SE 94km
Dati ricevuti: 07/08/2022 19:55
Parz. nuvoloso
Parz. nuvoloso
 Vento da SSO
Vento: SSO 7 km/h
Temperatura: 29°C
Indice di Calore: 36°C
P.to Rugiada: 26°C
Umidità: 84%
Barometro: 1011 hPa
Clouds: Parz. nuvoloso
Visibility: 10 km
Cloud details: Parz. nuvoloso 914 m
Parz. nuvoloso 2134 m
2022/08/07 17:55 LIRM 071755Z 20004KT 9999 SCT030 SCT070 29/26 Q1011
 
LIBP - Pescara, Italy
Distance from station: NE 108km
Dati ricevuti: 07/08/2022 19:50
Sereno
Sereno
 Vento da N
Vento: N 7 km/h
Temperatura: 28°C
Indice di Calore: 29°C
P.to Rugiada: 19°C
Umidità: 58%
Barometro: 1013 hPa
Clouds: Sereno
Visibility: 10 km
2022/08/07 17:50 LIBP 071750Z AUTO 35004KT 290V040 9999 NCD 28/19 Q1013
LIRN - Napoli/Capodichino, Italy
Distance from station: SE 120km
Dati ricevuti: 07/08/2022 19:50
Sereno
Sereno
 Vento da N
Vento: N 11 km/h
Temperatura: 31°C
Indice di Calore: 34°C
P.to Rugiada: 21°C
Umidità: 55%
Barometro: 1012 hPa
Summary: Sereno
Visibility: greater than 10 km
2022/08/07 17:50 LIRN 071750Z 36006KT CAVOK 31/21 Q1012 NOSIG
 
LIRV - Viterbo (it-Mil), Italy
Distance from station: NO 133km
Dati ricevuti: 07/08/2022 19:55
Sereno
Sereno
 Vento da NE
Vento: NE 17 km/h
Temperatura: 27°C
Indice di Calore: 29°C
P.to Rugiada: 21°C
Umidità: 70%
Barometro: 1013 hPa
Summary: Sereno
Visibility: greater than 10 km
2022/08/07 17:55 LIRV 071755Z 04009KT CAVOK 27/21 Q1013
LIQC - Capri, Italy
Distance from station: SSE 145km
Dati ricevuti: 07/08/2022 19:55
Temporale, Few clouds
Temporale, Few clouds
 Vento da calm
Vento: Calma
Temperatura: 30°C
Indice di Calore: 36°C
P.to Rugiada: 25°C
Umidità: 75%
Barometro: 1012 hPa
Summary: Temporale
Clouds: Few Clouds
Visibility: 10 km
Cloud details: Few Clouds 122 m
Few Clouds 305 m
2022/08/07 17:55 LIQC 071755Z 00000KT 9999 TS FEW004CB FEW010TCU 30/25 Q1012 RMK SCT SCT070 QUK 1 QUL 0 VIS MAR 15 KM VIS MIN 9999
 
LIRT - Trevico, Italy
Distance from station: ESE 172km
Dati ricevuti: 05/08/2022 19:55
Non Attivo
Few Clouds
Few Clouds
 Vento da NO
Vento: NO 13 km/h
Temperatura: 22°C
P.to Rugiada: 14°C
Umidità: 61%
Barometro: 1020 hPa
Clouds: Few Clouds
Visibility: 10 km
Cloud details: Few Clouds 305 m
2022/08/05 17:55 LIRT 051755Z 32007KT 9999 FEW010 22/14 Q1020
LIRZ - Perugia, Italy
Distance from station: NNO 172km
Dati ricevuti: 07/08/2022 19:50
Sereno
Sereno
 Vento da ESE
Vento: ESE 7 km/h
Temperatura: 30°C
Indice di Calore: 30°C
P.to Rugiada: 16°C
Umidità: 43%
Barometro: 1013 hPa
Clouds: Sereno
Visibility: 10 km
2022/08/07 17:50 LIRZ 071750Z AUTO 11004KT 080V140 9999 NCD 30/16 Q1013
 
LIRI - Pontecagnano (af, Italy
Distance from station: SE 177km
Dati ricevuti: 07/08/2022 18:50
Non Attivo
Coperto
Coperto
 Vento da SE
Vento: SE 9 km/h
Temperatura: 30°C
Indice di Calore: 35°C
P.to Rugiada: 24°C
Umidità: 70%
Barometro: 1011 hPa
Clouds: Coperto
Visibility: 10 km
Cloud details: Coperto 914 m
2022/08/07 16:50 LIRI 071650Z 13005KT 100V180 9999 OVC030 30/24 Q1011
LIBF - Foggia/Gino Lisa, Italy
Distance from station: E 183km
Dati ricevuti: 07/08/2022 14:50
Non Attivo
Few Clouds
Few Clouds
 Vento da varies
Vento: varies 0 km/h
Clouds: Few Clouds
Visibility: 10 km
Cloud details: Few Clouds 1219 m
2022/08/07 12:50 LIBF 071250Z /////KT 9999 FEW040 ///// Q////
 
LIQO - Monte Argentario, Italy
Distance from station: ONO 195km
Dati ricevuti: 07/08/2022 19:55

 Vento da NNO
Vento: NNO 7 km/h
Temperatura: 26°C
P.to Rugiada: 16°C
Umidità: 54%
Barometro: 1015 hPa
2022/08/07 17:55 LIQO 071755Z AUTO 33004KT //// 26/16 Q1015
LIBA - Amendola (it-Afb, Italy
Distance from station: E 198km
Dati ricevuti: 07/08/2022 19:55
Sereno
Sereno
 Vento da ONO
Vento: ONO 26 km/h
Temperatura: 29°C
Indice di Calore: 30°C
P.to Rugiada: 19°C
Umidità: 55%
Barometro: 1011 hPa
Summary: Sereno
Visibility: greater than 10 km
2022/08/07 17:55 LIBA 071755Z 30014KT CAVOK 29/19 Q1011
 
LIBN - Lecce (it-Afb), Italy
Dati ricevuti: 07/08/2022 19:55
Sereno
Sereno
 Vento da NNO
Vento: NNO 19 km/h
Temperatura: 31°C
Indice di Calore: 32°C
P.to Rugiada: 18°C
Umidità: 46%
Barometro: 1009 hPa
Summary: Sereno
Visibility: greater than 10 km
2022/08/07 17:55 LIBN 071755Z 33010KT CAVOK 31/18 Q1009
LIPY - Ancona-Falconara, Italy
Dati ricevuti: 07/08/2022 19:50
Parz. nuvoloso
Parz. nuvoloso
 Vento da N
Vento: N 7 km/h
Temperatura: 27°C
Indice di Calore: 29°C
P.to Rugiada: 20°C
Umidità: 66%
Barometro: 1013 hPa
Clouds: Parz. nuvoloso
Visibility: 10 km
Cloud details: Parz. nuvoloso 7010 m
2022/08/07 17:50 LIPY 071750Z AUTO 36004KT 9999 SCT230/// 27/20 Q1013
 
LICJ - Palermo-Punta Raisi, Italy
Dati ricevuti: 07/08/2022 19:50
Sereno
Sereno
 Vento da NNE
Vento: NNE 15 km/h
Temperatura: 30°C
Indice di Calore: 34°C
P.to Rugiada: 23°C
Umidità: 66%
Barometro: 1011 hPa
Summary: Sereno
Visibility: greater than 10 km
2022/08/07 17:50 LICJ 071750Z 02008KT CAVOK 30/23 Q1011
LIEB - Capo Bellavista, Italy
Dati ricevuti: 07/08/2022 19:55
Few Clouds
Few Clouds
 Vento da E
Vento: E 7 km/h
Temperatura: 29°C
Indice di Calore: 34°C
P.to Rugiada: 25°C
Umidità: 79%
Barometro: 1011 hPa
Clouds: Few Clouds
Visibility: 10 km
Cloud details: Few Clouds 610 m
2022/08/07 17:55 LIEB 071755Z 10004KT 9999 FEW020 29/25 Q1011 RMK BKN SCT080 QUK 1 QUL 0 VIS MAR 30 KM MON LIB VIS MIN 9999
 
LIEC - Capo Carbonara, Italy
Dati ricevuti: 07/08/2022 19:55
Sereno
Sereno
 Vento da ESE
Vento: ESE 13 km/h
Temperatura: 30°C
Indice di Calore: 33°C
P.to Rugiada: 22°C
Umidità: 62%
Barometro: 1010 hPa
Summary: Sereno
Visibility: greater than 10 km
2022/08/07 17:55 LIEC 071755Z 11007KT CAVOK 30/22 Q1010 RMK FEW FEW060 QUK 2 QUL 0 VIS MAR 20 KM VIS MIN 9999
LIED - Cagliari-Decimomannu(It-A, Italy
Dati ricevuti: 07/08/2022 19:55
Few Clouds
Few Clouds
 Vento da N
Vento: N 19 km/h
Temperatura: 31°C
Indice di Calore: 33°C
P.to Rugiada: 20°C
Umidità: 52%
Barometro: 1011 hPa
Clouds: Few Clouds
Visibility: 10 km
Cloud details: Few Clouds 610 m
2022/08/07 17:55 LIED 071755Z 35010KT 9999 FEW020TCU 31/20 Q1011
 
LIEE - Cagliari-Elmas(A, Italy
Dati ricevuti: 07/08/2022 19:50
Sereno
Sereno
 Vento da N
Vento: N 17 km/h
Temperatura: 33°C
Indice di Calore: 36°C
P.to Rugiada: 21°C
Umidità: 49%
Barometro: 1011 hPa
Summary: Sereno
Visibility: greater than 10 km
2022/08/07 17:50 LIEE 071750Z 36009KT 330V030 CAVOK 33/21 Q1011
LIEO - Olbia-Costa Smeralda, Italy
Dati ricevuti: 07/08/2022 19:50
Sereno
Sereno
 Vento da NE
Vento: NE 11 km/h
Temperatura: 31°C
Indice di Calore: 33°C
P.to Rugiada: 20°C
Umidità: 52%
Barometro: 1011 hPa
Summary: Sereno
Visibility: greater than 10 km
2022/08/07 17:50 LIEO 071750Z 04006KT 360V060 CAVOK 31/20 Q1011
 
LIEA - Alghero, Italy
Dati ricevuti: 07/08/2022 19:50
Sereno
Sereno
 Vento da ONO
Vento: ONO 6 km/h
Temperatura: 30°C
Indice di Calore: 35°C
P.to Rugiada: 24°C
Umidità: 70%
Barometro: 1012 hPa
Summary: Sereno
Visibility: greater than 10 km
2022/08/07 17:50 LIEA 071750Z 29003KT CAVOK 30/24 Q1012
LICA - Catanzaro-Lamezia Terme, Italy
Dati ricevuti: 07/08/2022 19:50
Molto nuvoloso
Molto nuvoloso
 Vento da NNE
Vento: NNE 6 km/h
Temperatura: 24°C
P.to Rugiada: 21°C
Umidità: 83%
Barometro: 1011 hPa
Clouds: Molto nuvoloso
Visibility: 10 km
Cloud details: Molto nuvoloso 3962 m
2022/08/07 17:50 LICA 071750Z AUTO 02003KT 340V060 9999 BKN130/// 24/21 Q1011
 
LIBQ - Cosenza-Monte Scuro, Italy
Dati ricevuti: 07/08/2022 19:55

 Vento da E
Vento: E 13 km/h
Temperatura: 17°C
P.to Rugiada: 11°C
Umidità: 68%
Barometro: 1021 hPa
2022/08/07 17:55 LIBQ 071755Z AUTO 08007KT //// 17/11 Q1021
LICR - Reggio Calabria, Italy
Dati ricevuti: 07/08/2022 19:50
Few Clouds
Few Clouds
 Vento da N
Vento: N 22 km/h
Temperatura: 29°C
Indice di Calore: 32°C
P.to Rugiada: 23°C
Umidità: 70%
Barometro: 1011 hPa
Clouds: Few Clouds
Visibility: 10 km
Cloud details: Few Clouds 3962 m
2022/08/07 17:50 LICR 071750Z AUTO 35012KT 310V010 9999 FEW130/// 29/23 Q1011
 
LIBV - Bari-Gioia Del Colle, Italy
Dati ricevuti: 07/08/2022 19:55
Sereno
Sereno
 Vento da NNO
Vento: NNO 19 km/h
Temperatura: 27°C
Indice di Calore: 28°C
P.to Rugiada: 16°C
Umidità: 51%
Barometro: 1011 hPa
Summary: Sereno
Visibility: greater than 10 km
2022/08/07 17:55 LIBV 071755Z 33010KT CAVOK 27/16 Q1011
LIBD - Bari-Palese Macchie, Italy
Dati ricevuti: 07/08/2022 19:50
Sereno
Sereno
 Vento da NNO
Vento: NNO 11 km/h
Temperatura: 29°C
Indice di Calore: 32°C
P.to Rugiada: 22°C
Umidità: 66%
Barometro: 1011 hPa
Summary: Sereno
Visibility: greater than 10 km
2022/08/07 17:50 LIBD 071750Z 33006KT 300V020 CAVOK 29/22 Q1011
 
LIBR - Brindisi-Casale, Italy
Dati ricevuti: 07/08/2022 19:50
Sereno
Sereno
 Vento da NNO
Vento: NNO 22 km/h
Temperatura: 28°C
Indice di Calore: 31°C
P.to Rugiada: 23°C
Umidità: 74%
Barometro: 1009 hPa
Summary: Sereno
Visibility: greater than 10 km
2022/08/07 17:50 LIBR 071750Z 33012KT CAVOK 28/23 Q1009
LIRT - Trevico, Italy
Dati ricevuti: 05/08/2022 19:55
Non Attivo
Few Clouds
Few Clouds
 Vento da NO
Vento: NO 13 km/h
Temperatura: 22°C
P.to Rugiada: 14°C
Umidità: 61%
Barometro: 1020 hPa
Clouds: Few Clouds
Visibility: 10 km
Cloud details: Few Clouds 305 m
2022/08/05 17:55 LIRT 051755Z 32007KT 9999 FEW010 22/14 Q1020
 
LICB - Comiso, Italy
Dati ricevuti: 07/08/2022 19:50
Sereno
Sereno
 Vento da varies
Vento: varies 4 km/h
Temperatura: 31°C
P.to Rugiada: 11°C
Umidità: 29%
Barometro: 1011 hPa
Clouds: Sereno
Visibility: 10 km
2022/08/07 17:50 LICB 071750Z AUTO VRB02KT 9999 NCD 31/11 Q1011
LICL - Gela, Italy
Dati ricevuti: 07/08/2022 19:55
Few Clouds
Few Clouds
 Vento da SSO
Vento: SSO 15 km/h
Temperatura: 28°C
Indice di Calore: 35°C
P.to Rugiada: 28°C
Umidità: 100%
Barometro: 1009 hPa
Clouds: Few Clouds
Visibility: 10 km
Cloud details: Few Clouds 671 m
2022/08/07 17:55 LICL 071755Z 21008KT 9999 FEW022 28/28 Q1009 RMK FEW QUK 1 QUL 0 VIS MAR 12 KM VIS MIN 9999
 
LIBN - Lecce (it-Afb), Italy
Dati ricevuti: 07/08/2022 19:55
Sereno
Sereno
 Vento da NNO
Vento: NNO 19 km/h
Temperatura: 31°C
Indice di Calore: 32°C
P.to Rugiada: 18°C
Umidità: 46%
Barometro: 1009 hPa
Summary: Sereno
Visibility: greater than 10 km
2022/08/07 17:55 LIBN 071755Z 33010KT CAVOK 31/18 Q1009
LICJ - Palermo-Punta Raisi, Italy
Dati ricevuti: 07/08/2022 19:50
Sereno
Sereno
 Vento da NNE
Vento: NNE 15 km/h
Temperatura: 30°C
Indice di Calore: 34°C
P.to Rugiada: 23°C
Umidità: 66%
Barometro: 1011 hPa
Summary: Sereno
Visibility: greater than 10 km
2022/08/07 17:50 LICJ 071750Z 02008KT CAVOK 30/23 Q1011
 
LICZ - Catania-Sigonella (nas), Italy
Dati ricevuti: 07/08/2022 19:55
Parz. nuvoloso
Parz. nuvoloso
 Vento da varies
Vento: varies 0 km/h
Temperatura: 30°C
Indice di Calore: 44°C
P.to Rugiada: 30°C
Umidità: 100%
Barometro: 1009 hPa
Clouds: Parz. nuvoloso
Visibility: 10 km
Cloud details: Few Clouds 1067 m
Parz. nuvoloso 3048 m
2022/08/07 17:55 LICZ 071755Z /////KT 9999 FEW035 SCT100 30/30 Q1009
LICC - Catania-Fontanarossa, Italy
Dati ricevuti: 07/08/2022 19:50
Few Clouds
Few Clouds
 Vento da E
Vento: E 9 km/h
Temperatura: 29°C
Indice di Calore: 32°C
P.to Rugiada: 23°C
Umidità: 70%
Barometro: 1010 hPa
Clouds: Few Clouds
Visibility: 10 km
Cloud details: Few Clouds 2438 m
2022/08/07 17:50 LICC 071750Z 10005KT 9999 FEW080 29/23 Q1010
 
LICT - Trapani-Birgi (a, Italy
Dati ricevuti: 07/08/2022 19:55
Sereno
Sereno
 Vento da N
Vento: N 15 km/h
Temperatura: 30°C
Indice di Calore: 37°C
P.to Rugiada: 26°C
Umidità: 79%
Barometro: 1011 hPa
Summary: Sereno
Visibility: greater than 10 km
2022/08/07 17:55 LICT 071755Z 35008KT CAVOK 30/26 Q1011
LICD - Agrigento-Lampedusa, Italy
Dati ricevuti: 07/08/2022 19:50
Sereno
Sereno
 Vento da NNO
Vento: NNO 17 km/h
Temperatura: 29°C
Indice di Calore: 33°C
P.to Rugiada: 24°C
Umidità: 74%
Barometro: 1011 hPa
Clouds: Sereno
Visibility: 10 km
2022/08/07 17:50 LICD 071750Z AUTO 33009KT 9999 NCD 29/24 Q1011
 
LICG - Pantelleria(It-A, Italy
Dati ricevuti: 07/08/2022 19:50
Few Clouds
Few Clouds
 Vento da NO
Vento: NO 17 km/h
Temperatura: 27°C
Indice di Calore: 31°C
P.to Rugiada: 24°C
Umidità: 84%
Barometro: 1013 hPa
Clouds: Few Clouds
Visibility: 10 km
Cloud details: Few Clouds 305 m
2022/08/07 17:50 LICG 071750Z 31009KT 9999 FEW010 27/24 Q1013
LIPX - Villafranca(Cv/M, Italy
Dati ricevuti: 07/08/2022 19:50
Few Clouds
Few Clouds
 Vento da varies
Vento: varies 4 km/h
Temperatura: 28°C
Indice di Calore: 29°C
P.to Rugiada: 18°C
Umidità: 55%
Barometro: 1014 hPa
Clouds: Few Clouds
Visibility: 10 km
Cloud details: Few Clouds 2438 m
2022/08/07 17:50 LIPX 071750Z VRB02KT 9999 FEW080 28/18 Q1014
 
LIPO - Brescia/Montichiari, Italy
Dati ricevuti: 07/08/2022 19:50
Parz. nuvoloso
Parz. nuvoloso
 Vento da SE
Vento: SE 9 km/h
Temperatura: 27°C
Indice di Calore: 28°C
P.to Rugiada: 17°C
Umidità: 54%
Barometro: 1015 hPa
Clouds: Parz. nuvoloso
Visibility: 10 km
Cloud details: Parz. nuvoloso 4877 m
2022/08/07 17:50 LIPO 071750Z AUTO 13005KT 9999 SCT160/// 27/17 Q1015
LIPL - Ghedi (it-Afb), Italy
Dati ricevuti: 07/08/2022 19:55
Few Clouds
Few Clouds
 Vento da SE
Vento: SE 11 km/h
Temperatura: 27°C
Indice di Calore: 29°C
P.to Rugiada: 20°C
Umidità: 66%
Barometro: 1014 hPa
Clouds: Few Clouds
Visibility: 10 km
Cloud details: Few Clouds 1219 m
2022/08/07 17:55 LIPL 071755Z 13006KT 9999 FEW040 27/20 Q1014
 
LIMP - Parma, Italy
Dati ricevuti: 07/08/2022 19:50
Sereno
Sereno
 Vento da E
Vento: E 13 km/h
Temperatura: 27°C
Indice di Calore: 28°C
P.to Rugiada: 17°C
Umidità: 54%
Barometro: 1014 hPa
Summary: Sereno
Visibility: greater than 10 km
2022/08/07 17:50 LIMP 071750Z 09007KT CAVOK 27/17 Q1014
LIMS - Piacenza (it-Afb, Italy
Dati ricevuti: 07/08/2022 19:55
Sereno
Sereno
 Vento da E
Vento: E 11 km/h
Temperatura: 28°C
Indice di Calore: 32°C
P.to Rugiada: 24°C
Umidità: 79%
Barometro: 1013 hPa
Summary: Sereno
Visibility: greater than 10 km
2022/08/07 17:55 LIMS 071755Z 10006KT CAVOK 28/24 Q1013
 
LIPF - Ferrara (aut), Italy
Dati ricevuti: 07/08/2022 19:55
Few Clouds
Few Clouds
 Vento da varies
Vento: varies 0 km/h
Temperatura: 28°C
Indice di Calore: 29°C
P.to Rugiada: 20°C
Umidità: 62%
Barometro: 1013 hPa
Clouds: Few Clouds
Visibility: 10 km
Cloud details: Few Clouds 2134 m
2022/08/07 17:55 LIPF 071755Z /////KT 9999 FEW070 28/20 Q1013
LIPE - Bologna/Borgo (a, Italy
Dati ricevuti: 07/08/2022 19:50
Sereno
Sereno
 Vento da N
Vento: N 7 km/h
Temperatura: 28°C
Indice di Calore: 28°C
P.to Rugiada: 16°C
Umidità: 48%
Barometro: 1014 hPa
Summary: Sereno
Visibility: greater than 10 km
2022/08/07 17:50 LIPE 071750Z 36004KT CAVOK 28/16 Q1014
 
LIPU - Padova (civ/It-A, Italy
Dati ricevuti: 07/08/2022 15:50
Non Attivo
Sereno
Sereno
 Vento da N
Vento: N 11 km/h
Temperatura: 27°C
Indice di Calore: 29°C
P.to Rugiada: 20°C
Umidità: 66%
Barometro: 1015 hPa
Summary: Sereno
Visibility: greater than 10 km
2022/08/07 13:50 LIPU 071350Z 36006KT 300V070 CAVOK 27/20 Q1015
LIME - Bergamo/Orio Ser, Italy
Dati ricevuti: 07/08/2022 19:50
Molto nuvoloso
Molto nuvoloso
 Vento da SSO
Vento: SSO 6 km/h
Temperatura: 27°C
Indice di Calore: 28°C
P.to Rugiada: 16°C
Umidità: 51%
Barometro: 1016 hPa
Clouds: Molto nuvoloso
Visibility: 10 km
Cloud details: Few Clouds 1219 m
Molto nuvoloso 1524 m
2022/08/07 17:50 LIME 071750Z 20003KT 160V330 9999 FEW040TCU BKN050 27/16 Q1016 NOSIG
 
LIMT - Cisa Pass, Italy
Dati ricevuti: 23/09/2019 13:55
Non Attivo
Nebbia
Nebbia
 Vento da calm
Vento: Calma
Temperatura: 10°C
P.to Rugiada: 10°C
Umidità: 100%
Barometro: 1014 hPa
Summary: Nebbia
Visibility: 0 km
2019/09/23 11:55 LIMT 231155Z 00000KT 0000 FG VV/// 10/10 Q1014 RMK MON INVIS VAL INVIS VIS MIN 0000
LIVC - Cimone Mountain, Italy
Dati ricevuti: 07/08/2022 19:55

 Vento da N
Vento: N 9 km/h
Temperatura: 15°C
P.to Rugiada: 7°C
Umidità: 59%
Barometro: 1026 hPa
2022/08/07 17:55 LIVC 071755Z AUTO 35005KT //// 15/07 Q1026
 
LIVP - Paganella Mounta, Italy
Dati ricevuti: 07/08/2022 19:55
Few Clouds
Few Clouds
 Vento da S
Vento: S 4 km/h
Temperatura: 13°C
P.to Rugiada: 7°C
Umidità: 67%
Barometro: 1025 hPa
Clouds: Few Clouds
Visibility: 10 km
Cloud details: Few Clouds 305 m
2022/08/07 17:55 LIVP 071755Z 18002KT 9999 FEW010 13/07 Q1025
LIML - Milano/Linate, Italy
Dati ricevuti: 07/08/2022 19:50
Parz. nuvoloso
Parz. nuvoloso
 Vento da SE
Vento: SE 11 km/h
Temperatura: 28°C
Indice di Calore: 28°C
P.to Rugiada: 16°C
Umidità: 48%
Barometro: 1014 hPa
Clouds: Parz. nuvoloso
Visibility: 10 km
Cloud details: Parz. nuvoloso 914 m
Parz. nuvoloso 1829 m
2022/08/07 17:50 LIML 071750Z 13006KT 9999 SCT030 SCT060 28/16 Q1014 NOSIG
 
LIPS - Istrana (it-Afb), Italy
Dati ricevuti: 07/08/2022 19:55
Molto nuvoloso
Molto nuvoloso
 Vento da varies
Vento: varies 0 km/h
Temperatura: 27°C
Indice di Calore: 28°C
P.to Rugiada: 17°C
Umidità: 54%
Barometro: 1014 hPa
Clouds: Molto nuvoloso
Visibility: 10 km
Cloud details: Few Clouds 762 m
Molto nuvoloso 2438 m
2022/08/07 17:55 LIPS 071755Z /////KT 9999 FEW025TCU BKN080 27/17 Q1014
LIPH - Treviso(Civ/It-A, Italy
Dati ricevuti: 07/08/2022 19:50
Sereno
Sereno
 Vento da N
Vento: N 11 km/h
Temperatura: 28°C
Indice di Calore: 28°C
P.to Rugiada: 17°C
Umidità: 51%
Barometro: 1014 hPa
Summary: Sereno
Visibility: greater than 10 km
2022/08/07 17:50 LIPH 071750Z 35006KT 300V040 CAVOK 28/17 Q1014
 
LIPZ - Venezia/Tessera, Italy
Dati ricevuti: 07/08/2022 19:50
Few Clouds
Few Clouds
 Vento da NNO
Vento: NNO 7 km/h
Temperatura: 28°C
Indice di Calore: 29°C
P.to Rugiada: 18°C
Umidità: 55%
Barometro: 1013 hPa
Clouds: Few Clouds
Visibility: 10 km
Cloud details: Few Clouds 1829 m
2022/08/07 17:50 LIPZ 071750Z 34004KT 300V060 9999 FEW060 28/18 Q1013 NOSIG
LIQW - Sarzana/Luni, Italy
Dati ricevuti: 05/08/2022 13:55
Non Attivo
Sereno
Sereno
 Vento da varies
Vento: varies 0 km/h
Temperatura: 31°C
Indice di Calore: 36°C
P.to Rugiada: 23°C
Umidità: 62%
Barometro: 1014 hPa
Summary: Sereno
Visibility: greater than 10 km
2022/08/05 11:55 LIQW 051155Z /////KT CAVOK 31/23 Q1014
 
LIVR - Rolle Pass, Italy
Dati ricevuti: 07/08/2022 15:55
Non Attivo
Coperto
Coperto
 Vento da ESE
Vento: ESE 15 km/h
Temperatura: 12°C
P.to Rugiada: 11°C
Umidità: 94%
Barometro: 1024 hPa
Clouds: Coperto
Visibility: 10 km
Cloud details: Coperto 457 m
2022/08/07 13:55 LIVR 071355Z 12008KT 9999 OVC015 12/11 Q1024
LIPK - Forli (civ/It-Af, Italy
Dati ricevuti: 07/08/2022 19:50
Few Clouds
Few Clouds
 Vento da NNE
Vento: NNE 11 km/h
Temperatura: 28°C
Indice di Calore: 28°C
P.to Rugiada: 15°C
Umidità: 45%
Barometro: 1013 hPa
Clouds: Few Clouds
Visibility: 10 km
Cloud details: Few Clouds 1524 m
2022/08/07 17:50 LIPK 071750Z 02006KT 9999 FEW050 28/15 Q1013
 
LIMV - Giovi Pass, Italy
Dati ricevuti: 06/08/2022 19:55
Non Attivo
Few Clouds
Few Clouds
 Vento da varies
Vento: varies 0 km/h
Temperatura: 27°C
Indice di Calore: 30°C
P.to Rugiada: 23°C
Umidità: 79%
Barometro: 1016 hPa
Clouds: Few Clouds
Visibility: 10 km
Cloud details: Few Clouds 396 m
2022/08/06 17:55 LIMV 061755Z /////KT 9999 FEW013TCU 27/23 Q1016
LIPB - Bolzano(Civ/It-A, Italy
Dati ricevuti: 07/08/2022 19:50
Parz. nuvoloso
Parz. nuvoloso
 Vento da N
Vento: N 7 km/h
Temperatura: 24°C
P.to Rugiada: 19°C
Umidità: 74%
Barometro: 1016 hPa
Clouds: Parz. nuvoloso
Visibility: 10 km
Cloud details: Few Clouds 2134 m
Parz. nuvoloso 2743 m
2022/08/07 17:50 LIPB 071750Z 35004KT 300V080 9999 FEW070 SCT090 24/19 Q1016 RETS
 
LIVD - Bolzano-Dobbiaco, Italy
Dati ricevuti: 05/08/2022 11:55
Non Attivo
Few Clouds
Few Clouds
 Vento da varies
Vento: varies 0 km/h
Temperatura: 25°C
P.to Rugiada: 15°C
Umidità: 54%
Barometro: 1021 hPa
Clouds: Few Clouds
Visibility: 10 km
Cloud details: Few Clouds 914 m
2022/08/05 09:55 LIVD 050955Z /////KT 9999 FEW030 25/15 Q1021
LIVE - Bolzano-Passo Resia, Italy
Dati ricevuti: 07/08/2022 19:55
Coperto
Coperto
 Vento da SO
Vento: SO 7 km/h
Temperatura: 16°C
P.to Rugiada: 12°C
Umidità: 77%
Barometro: 1021 hPa
Clouds: Coperto
Visibility: 10 km
Cloud details: Coperto 914 m
2022/08/07 17:55 LIVE 071755Z 22004KT 9999 OVC030 16/12 Q1021
 
LIMH - Aosta-Pian Rosa (mtn T, Italy
Dati ricevuti: 07/08/2022 19:55

 Vento da NE
Vento: NE 17 km/h
Temperatura: 2°C
Temperatura del Vento: -2°C
P.to Rugiada: -3°C
Umidità: 70%
Barometro: 1032 hPa
2022/08/07 17:55 LIMH 071755Z AUTO 04009KT //// 02/M03 Q1032
LIMZ - Cuneo/Levaldigi, Italy
Dati ricevuti: 07/08/2022 19:50
Pioviggine, Coperto
Pioviggine, Coperto
 Vento da SSO
Vento: SSO 26 km/h
Temperatura: 19°C
P.to Rugiada: 19°C
Umidità: 100%
Barometro: 1018 hPa
Summary: Pioviggine
Clouds: Coperto
Visibility: 10 km
Cloud details: Coperto 2835 m
2022/08/07 17:50 LIMZ 071750Z AUTO 20014KT 9999 -RA OVC093/// 19/19 Q1018
 
LIMK - Torino-Bric Della Croce, Italy
Dati ricevuti: 07/08/2022 19:55
Light thunderstorm, Pioggia, Parz. nuvoloso
Light thunderstorm, Pioggia, Parz. nuvoloso
 Vento da SSO
Vento: SSO 17 km/h
Temperatura: 22°C
P.to Rugiada: 20°C
Umidità: 88%
Barometro: 1016 hPa
Summary: Light thunderstorm, Pioggia
Clouds: Parz. nuvoloso
Visibility: 10 km
Cloud details: Parz. nuvoloso 457 m
Parz. nuvoloso 914 m
2022/08/07 17:55 LIMK 071755Z 21009KT 9999 -TSRA SCT015CB SCT030 22/20 Q1016
LIMN - Novara-Cameri (it-Afb), Italy
Dati ricevuti: 05/08/2022 19:55
Non Attivo
Sereno
Sereno
 Vento da N
Vento: N 19 km/h
Temperatura: 32°C
Indice di Calore: 33°C
P.to Rugiada: 18°C
Umidità: 43%
Barometro: 1012 hPa
Summary: Sereno
Visibility: greater than 10 km
2022/08/05 17:55 LIMN 051755Z 01010KT CAVOK 32/18 Q1012
 
LIPA - Pordenone-Aviano (it/Us-Af, Italy
Dati ricevuti: 06/08/2022 19:55
Non Attivo
Parz. nuvoloso
Parz. nuvoloso
 Vento da NE
Vento: NE 22 km/h
Temperatura: 24°C
P.to Rugiada: 20°C
Umidità: 78%
Barometro: 1015 hPa
Clouds: Parz. nuvoloso
Visibility: 10 km
Cloud details: Parz. nuvoloso 2134 m
2022/08/06 17:55 LIPA 061755Z 04012KT 9999 SCT070 24/20 Q1015
LIPI - Udine-Rivolto (it-Afb), Italy
Dati ricevuti: 07/08/2022 19:55
Parz. nuvoloso
Parz. nuvoloso
 Vento da ENE
Vento: ENE 7 km/h
Temperatura: 28°C
Indice di Calore: 29°C
P.to Rugiada: 18°C
Umidità: 55%
Barometro: 1013 hPa
Clouds: Parz. nuvoloso
Visibility: 10 km
Cloud details: Parz. nuvoloso 2743 m
2022/08/07 17:55 LIPI 071755Z 07004KT 9999 SCT090 28/18 Q1013
 
LIVO - Udine-Tarvisio, Italy
Dati ricevuti: 05/08/2022 19:55
Non Attivo
Molto nuvoloso
Molto nuvoloso
 Vento da calm
Vento: Calma
Temperatura: 21°C
P.to Rugiada: 19°C
Umidità: 88%
Barometro: 1017 hPa
Clouds: Molto nuvoloso
Visibility: 10 km
Cloud details: Molto nuvoloso 914 m
2022/08/05 17:55 LIVO 051755Z 00000KT 9999 BKN030 21/19 Q1017
LIPQ - Trieste-Ronchi Dei Legionari, Italy
Dati ricevuti: 07/08/2022 19:50
Sereno
Sereno
 Vento da E
Vento: E 15 km/h
Temperatura: 28°C
Indice di Calore: 28°C
P.to Rugiada: 15°C
Umidità: 45%
Barometro: 1013 hPa
Clouds: Sereno
Visibility: 10 km
2022/08/07 17:50 LIPQ 071750Z AUTO 09008KT 9999 NCD 28/15 Q1013
 
LIVT - Trieste, Italy
Dati ricevuti: 07/08/2022 18:55
Non Attivo

 Vento da varies
Vento: varies 4 km/h
Temperatura: 29°C
Indice di Calore: 29°C
P.to Rugiada: 15°C
Umidità: 43%
Barometro: 1012 hPa
2022/08/07 16:55 LIVT 071655Z AUTO VRB02KT //// 29/15 Q1012
LIRQ - Firenze/Peretola, Italy
Dati ricevuti: 07/08/2022 19:50
Sereno
Sereno
 Vento da NE
Vento: NE 15 km/h
Temperatura: 31°C
Indice di Calore: 32°C
P.to Rugiada: 17°C
Umidità: 43%
Barometro: 1011 hPa
Summary: Sereno
Visibility: greater than 10 km
2022/08/07 17:50 LIRQ 071750Z 05008KT 010V070 CAVOK 31/17 Q1011
 
LIPK - Forli (civ/It-Af, Italy
Dati ricevuti: 07/08/2022 19:50
Few Clouds
Few Clouds
 Vento da NNE
Vento: NNE 11 km/h
Temperatura: 28°C
Indice di Calore: 28°C
P.to Rugiada: 15°C
Umidità: 45%
Barometro: 1013 hPa
Clouds: Few Clouds
Visibility: 10 km
Cloud details: Few Clouds 1524 m
2022/08/07 17:50 LIPK 071750Z 02006KT 9999 FEW050 28/15 Q1013
LIRS - Grosseto (it-Afb, Italy
Dati ricevuti: 07/08/2022 19:55
Few Clouds
Few Clouds
 Vento da NE
Vento: NE 15 km/h
Temperatura: 31°C
Indice di Calore: 34°C
P.to Rugiada: 21°C
Umidità: 55%
Barometro: 1010 hPa
Clouds: Few Clouds
Visibility: 10 km
Cloud details: Few Clouds 914 m
2022/08/07 17:55 LIRS 071755Z 05008KT 9999 FEW030TCU 31/21 Q1010
 
LIRP - Pisa (civ/It-Afb, Italy
Dati ricevuti: 07/08/2022 19:45
Sereno
Sereno
 Vento da ESE
Vento: ESE 11 km/h
Temperatura: 30°C
Indice di Calore: 31°C
P.to Rugiada: 19°C
Umidità: 52%
Barometro: 1011 hPa
Summary: Sereno
Visibility: greater than 10 km
2022/08/07 17:45 LIRP 071745Z 12006KT CAVOK 30/19 Q1011 NOSIG
LIVF - Frontone, Italy
Dati ricevuti: 07/08/2022 19:55
Parz. nuvoloso
Parz. nuvoloso
 Vento da E
Vento: E 6 km/h
Temperatura: 24°C
P.to Rugiada: 17°C
Umidità: 65%
Barometro: 1015 hPa
Clouds: Parz. nuvoloso
Visibility: 10 km
Cloud details: Parz. nuvoloso 1067 m
2022/08/07 17:55 LIVF 071755Z 09003KT 9999 SCT035 24/17 Q1015
 
LIPC - Cervia (it-Afb), Italy
Dati ricevuti: 07/08/2022 19:55
Few Clouds
Few Clouds
 Vento da N
Vento: N 7 km/h
Temperatura: 27°C
Indice di Calore: 29°C
P.to Rugiada: 20°C
Umidità: 66%
Barometro: 1014 hPa
Clouds: Few Clouds
Visibility: 10 km
Cloud details: Few Clouds 1524 m
2022/08/07 17:55 LIPC 071755Z 01004KT 9999 FEW050 27/20 Q1014
LIPR - Rimini (civ/It-A, Italy
Dati ricevuti: 07/08/2022 19:50
Few Clouds
Few Clouds
 Vento da N
Vento: N 11 km/h
Temperatura: 27°C
Indice di Calore: 29°C
P.to Rugiada: 21°C
Umidità: 70%
Barometro: 1013 hPa
Clouds: Few Clouds
Visibility: 10 km
Cloud details: Few Clouds 6096 m
2022/08/07 17:50 LIPR 071750Z AUTO 35006KT 320V020 9999 FEW200/// 27/21 Q1013
 
LIRX - Monte Calamita, Italy
Dati ricevuti: 07/08/2022 19:55
Sereno
Sereno
 Vento da calm
Vento: Calma
Temperatura: 31°C
Indice di Calore: 34°C
P.to Rugiada: 21°C
Umidità: 55%
Barometro: 1012 hPa
Summary: Sereno
Visibility: greater than 10 km
2022/08/07 17:55 LIRX 071755Z 00000KT CAVOK 31/21 Q1012
LIVM - Punta Marina/Rav, Italy
Dati ricevuti: 07/08/2022 19:55

 Vento da NNE
Vento: NNE 7 km/h
Temperatura: 29°C
Indice di Calore: 29°C
P.to Rugiada: 18°C
Umidità: 51%
Barometro: 1014 hPa
2022/08/07 17:55 LIVM 071755Z AUTO 03004KT //// 29/18 Q1014